Time;durP1;ratioP1;P1;durP2;ratioP2;P2;SDS_P1;SDS_P2;PMS_P1;PMS_P2;Temp;Humidity;BMP_temperature;BMP_pressure;BME280_temperature;BME280_humidity;BME280_pressure;Samples;Min_cycle;Max_cycle;Signal;HPM_P1;HPM_P2
2021/08/23 00:04:25;;;;;;;;;;;15.20;99.90;;;13.93;100.00;96102.03;10474885;28;2035;-80
2021/08/23 00:09:28;;;;;;;;;;;15.10;99.90;;;13.85;100.00;96105.34;10498635;28;2315;-84
2021/08/23 00:14:31;;;;;;;;;;;15.00;99.90;;;13.80;100.00;96097.28;10488301;28;2284;-82
2021/08/23 00:19:34;;;;;;;;;;;14.90;99.90;;;13.66;100.00;96099.88;10480040;28;2315;-82
2021/08/23 00:24:37;;;;;;;;;;;14.90;99.90;;;13.66;100.00;96097.16;10501485;28;2223;-82
2021/08/23 00:29:40;;;;;;;;;;;14.80;99.90;;;13.57;100.00;96092.69;10499216;28;2289;-82
2021/08/23 00:34:42;;;;;;;;;;;14.70;99.90;;;13.50;100.00;96090.31;10435382;28;1196073;-82
2021/08/23 00:39:45;;;;;;;;;;;14.60;99.90;;;13.49;100.00;96096.81;10499029;28;2306;-82
2021/08/23 00:44:48;;;;;;;;;;;14.60;99.90;;;13.43;100.00;96098.75;10489922;28;2262;-82
2021/08/23 00:49:51;;;;;;;;;;;14.60;99.90;;;13.42;100.00;96085.50;10489890;28;2296;-82
2021/08/23 00:54:54;;;;;;;;;;;14.60;99.90;;;13.34;100.00;96089.63;10513235;28;1476;-82
2021/08/23 00:59:57;;;;;;;;;;;14.50;99.90;;;13.33;100.00;96096.13;10535480;28;2435;-82
2021/08/23 01:05:00;;;;;;;;;;;14.50;99.90;;;13.41;100.00;96083.91;10514339;28;2538;-83
2021/08/23 01:10:02;;;;;;;;;;;14.50;99.90;;;13.40;100.00;96083.09;10499176;28;2997;-82
2021/08/23 01:15:05;;;;;;;;;;;14.50;99.90;;;13.49;100.00;96092.22;10496357;28;2325;-83
2021/08/23 01:20:08;;;;;;;;;;;14.50;99.90;;;13.36;100.00;96082.06;10486058;28;2537;-84
2021/08/23 01:25:13;;;;;;;;;;;14.50;99.90;;;13.35;100.00;96082.31;10506622;28;2388;-81
2021/08/23 01:30:16;;;;;;;;;;;14.50;99.90;;;13.27;100.00;96085.66;10496368;28;1933;-81
2021/08/23 01:35:18;;;;;;;;;;;14.40;99.90;;;13.19;100.00;96087.84;10502998;28;1926;-82
2021/08/23 01:40:21;;;;;;;;;;;14.40;99.90;;;13.18;100.00;96085.44;10480616;28;2140;-81
2021/08/23 01:45:24;;;;;;;;;;;14.40;99.90;;;13.20;100.00;96083.25;10497056;28;1952;-82
2021/08/23 01:50:26;;;;;;;;;;;14.30;99.90;;;13.19;100.00;96093.22;10508948;28;2525;-82
2021/08/23 01:55:29;;;;;;;;;;;14.30;99.90;;;13.07;100.00;96089.28;10527509;28;2550;-79
2021/08/23 02:00:32;;;;;;;;;;;14.20;99.90;;;13.20;100.00;96089.47;10520638;28;2491;-81
2021/08/23 02:05:35;;;;;;;;;;;14.20;99.90;;;13.38;100.00;96090.69;10495754;28;2432;-81
2021/08/23 02:10:37;;;;;;;;;;;14.30;99.90;;;13.51;100.00;96087.31;10486617;28;2443;-81
2021/08/23 02:15:40;;;;;;;;;;;14.50;99.90;;;13.49;100.00;96089.50;10503378;28;2452;-79
2021/08/23 02:20:43;;;;;;;;;;;14.50;99.90;;;13.49;100.00;96094.91;10510504;28;2483;-80
2021/08/23 02:25:45;;;;;;;;;;;14.50;99.90;;;13.59;100.00;96098.59;10506802;28;2460;-80
2021/08/23 02:30:48;;;;;;;;;;;14.60;99.90;;;13.66;100.00;96093.66;10506916;28;2512;-79
2021/08/23 02:35:51;;;;;;;;;;;14.60;99.90;;;13.66;100.00;96090.97;10504324;28;2206;-82
2021/08/23 02:40:53;;;;;;;;;;;14.70;99.90;;;13.70;100.00;96092.00;10492249;28;2539;-81
2021/08/23 02:45:56;;;;;;;;;;;14.70;99.90;;;13.70;100.00;96089.31;10496751;28;2503;-82
2021/08/23 02:50:59;;;;;;;;;;;14.70;99.90;;;13.69;100.00;96085.00;10493611;28;2530;-80
2021/08/23 02:56:02;;;;;;;;;;;14.70;99.90;;;13.61;100.00;96088.31;10496512;28;2399;-81
2021/08/23 03:01:05;;;;;;;;;;;14.70;99.90;;;13.64;100.00;96082.34;10503262;28;2535;-81
2021/08/23 03:06:07;;;;;;;;;;;14.70;99.90;;;13.60;100.00;96081.28;10502102;28;2636;-80
2021/08/23 03:11:10;;;;;;;;;;;14.70;99.90;;;13.60;100.00;96082.09;10486551;28;2204;-78
2021/08/23 03:16:13;;;;;;;;;;;14.70;99.90;;;13.57;100.00;96081.88;10528997;28;2432;-81
2021/08/23 03:21:17;;;;;;;;;;;14.60;99.90;;;13.66;100.00;96074.75;10502452;28;2423;-81
2021/08/23 03:26:20;;;;;;;;;;;14.70;99.90;;;13.72;100.00;96079.00;10498596;28;2103;-81
2021/08/23 03:31:23;;;;;;;;;;;14.70;99.90;;;13.72;100.00;96079.81;10499239;28;2412;-81
2021/08/23 03:36:26;;;;;;;;;;;14.70;99.90;;;13.71;100.00;96088.22;10511895;28;2443;-81
2021/08/23 03:41:28;;;;;;;;;;;14.70;99.90;;;13.76;100.00;96085.47;10514751;28;2471;-81
2021/08/23 03:46:32;;;;;;;;;;;14.80;99.90;;;13.79;100.00;96084.88;10514645;28;2109;-79
2021/08/23 03:51:35;;;;;;;;;;;14.80;99.90;;;13.83;100.00;96085.94;10518871;28;2569;-81
2021/08/23 03:56:38;;;;;;;;;;;14.80;99.90;;;13.82;100.00;96092.44;10519665;28;2436;-83
2021/08/23 04:01:41;;;;;;;;;;;14.90;99.90;;;13.84;100.00;96086.72;10522325;28;2515;-81
2021/08/23 04:06:45;;;;;;;;;;;14.80;99.90;;;13.81;100.00;96088.13;10528197;28;2396;-83
2021/08/23 04:11:48;;;;;;;;;;;14.90;99.90;;;13.82;100.00;96088.94;10532658;28;1917;-80
2021/08/23 04:16:51;;;;;;;;;;;14.90;99.90;;;13.74;100.00;96087.63;10530501;28;1152;-80
2021/08/23 04:21:54;;;;;;;;;;;14.80;99.90;;;13.72;100.00;96087.13;10545138;28;2011;-81
2021/08/23 04:26:56;;;;;;;;;;;14.80;99.90;;;13.72;100.00;96089.81;10535205;28;1878;-82
2021/08/23 04:31:59;;;;;;;;;;;14.80;99.90;;;13.79;100.00;96087.59;10518844;28;2262;-81
2021/08/23 04:37:04;;;;;;;;;;;14.80;99.90;;;13.84;100.00;96087.53;10526193;28;1320;-80
2021/08/23 04:42:07;;;;;;;;;;;14.90;99.90;;;13.85;100.00;96085.63;10542424;28;1866;-82
2021/08/23 04:47:09;;;;;;;;;;;14.90;99.90;;;13.83;100.00;96094.03;10533538;28;1771;-83
2021/08/23 04:52:12;;;;;;;;;;;14.90;99.90;;;13.93;100.00;96096.66;10539246;28;1887;-79
2021/08/23 04:57:16;;;;;;;;;;;14.90;99.90;;;13.93;100.00;96096.66;10536403;28;2090;-79
2021/08/23 05:02:19;;;;;;;;;;;14.90;99.90;;;13.95;100.00;96099.84;10536491;28;1746;-79
2021/08/23 05:07:21;;;;;;;;;;;15.00;99.90;;;14.09;100.00;96096.47;10530886;28;3059;-79
2021/08/23 05:12:24;;;;;;;;;;;15.00;99.90;;;14.26;100.00;96100.31;10503151;28;2546;-80
2021/08/23 05:17:27;;;;;;;;;;;15.20;99.90;;;14.42;100.00;96098.22;10506170;28;1217;-80
2021/08/23 05:22:29;;;;;;;;;;;15.30;99.90;;;14.55;100.00;96102.94;10479497;28;2540;-81
2021/08/23 05:27:32;;;;;;;;;;;15.40;99.90;;;14.67;100.00;96099.00;10483811;28;2009;-82
2021/08/23 05:32:35;;;;;;;;;;;15.50;99.90;;;14.84;100.00;96104.75;10489962;28;1957;-80
2021/08/23 05:37:38;;;;;;;;;;;15.60;99.90;;;14.88;100.00;96106.53;10506920;28;2550;-81
2021/08/23 05:42:40;;;;;;;;;;;15.70;99.90;;;14.98;99.78;96102.09;10497584;28;2480;-81
2021/08/23 05:47:43;;;;;;;;;;;15.80;99.90;;;15.06;100.00;96112.25;10511470;28;2511;-81
2021/08/23 05:52:46;;;;;;;;;;;15.90;99.90;;;15.19;100.00;96106.09;10490534;28;2054;-81
2021/08/23 05:57:49;;;;;;;;;;;16.00;99.90;;;15.25;99.60;96104.13;10518758;28;2518;-79
2021/08/23 06:02:52;;;;;;;;;;;16.10;99.90;;;15.52;97.14;96101.50;10529666;28;1925;-81
2021/08/23 06:07:55;;;;;;;;;;;16.20;99.90;;;15.75;96.18;96091.66;10528476;28;2898;-79
2021/08/23 06:12:58;;;;;;;;;;;16.50;99.90;;;15.95;94.07;96095.91;10505387;28;2520;-79
2021/08/23 06:18:02;;;;;;;;;;;16.70;99.90;;;16.38;92.71;96095.63;10513048;28;2925;-78
2021/08/23 06:23:05;;;;;;;;;;;16.90;99.90;;;16.36;91.11;96105.97;10515612;28;2538;-79
2021/08/23 06:28:08;;;;;;;;;;;17.10;99.90;;;16.24;94.21;96102.97;10494332;28;2518;-80
2021/08/23 06:33:10;;;;;;;;;;;17.00;99.90;;;16.30;93.20;96099.84;10498533;28;2458;-78
2021/08/23 06:38:13;;;;;;;;;;;17.00;99.90;;;16.12;92.47;96106.97;10519612;28;2406;-78
2021/08/23 06:43:16;;;;;;;;;;;17.00;99.90;;;16.25;91.72;96104.56;10511259;28;2475;-80
2021/08/23 06:48:19;;;;;;;;;;;17.00;99.90;;;17.00;89.34;96098.66;10532183;28;2593;-82
2021/08/23 06:53:22;;;;;;;;;;;17.40;99.90;;;17.33;84.83;96101.97;10502766;28;2493;-79
2021/08/23 06:58:25;;;;;;;;;;;17.90;99.90;;;17.41;84.28;96103.13;10526747;28;2515;-80
2021/08/23 07:03:27;;;;;;;;;;;18.00;99.90;;;17.46;83.93;96100.28;10521449;28;1875;-81
2021/08/23 07:08:30;;;;;;;;;;;18.10;99.90;;;17.63;83.48;96097.69;10515159;28;2892;-80
2021/08/23 07:13:33;;;;;;;;;;;18.30;99.90;;;17.72;79.54;96092.31;10525132;28;2505;-81
2021/08/23 07:18:36;;;;;;;;;;;18.40;99.90;;;18.04;78.73;96100.16;10520713;28;2480;-83
2021/08/23 07:23:38;;;;;;;;;;;18.50;99.90;;;17.94;78.07;96097.75;10541353;28;2340;-81
2021/08/23 07:28:42;;;;;;;;;;;18.70;99.90;;;17.87;76.43;96086.47;10548543;28;2458;-79
2021/08/23 07:33:45;;;;;;;;;;;18.50;99.90;;;18.34;77.59;96095.81;10523598;28;2078;-82
2021/08/23 07:38:48;;;;;;;;;;;18.80;99.90;;;18.17;76.05;96095.75;10536867;28;1543;-79
2021/08/23 07:43:51;;;;;;;;;;;18.90;99.90;;;18.09;76.90;96088.34;10516673;28;2220;-83
2021/08/23 07:48:54;;;;;;;;;;;18.80;99.90;;;18.43;76.88;96095.03;10500967;28;2515;-80
2021/08/23 07:53:57;;;;;;;;;;;18.80;99.90;;;18.49;79.63;96102.75;10504332;28;2729;-81
2021/08/23 07:58:59;;;;;;;;;;;19.10;99.90;;;18.05;78.99;96107.22;10504545;28;2284;-82
2021/08/23 08:04:02;;;;;;;;;;;18.90;99.90;;;18.09;80.30;96113.63;10482939;28;2426;-80
2021/08/23 08:09:05;;;;;;;;;;;18.80;99.90;;;18.47;76.87;96104.19;10500608;28;2244;-80
2021/08/23 08:14:08;;;;;;;;;;;19.00;99.90;;;17.30;85.29;96097.13;10489512;28;2407;-79
2021/08/23 08:19:10;;;;;;;;;;;18.70;99.90;;;17.16;96.79;96113.47;10502671;28;2390;-80
2021/08/23 08:24:13;;;;;;;;;;;18.20;99.90;;;17.13;94.16;96105.97;10494582;28;2454;-83
2021/08/23 08:29:16;;;;;;;;;;;17.90;99.90;;;17.55;94.84;96104.66;10503620;28;2272;-80
2021/08/23 08:34:19;;;;;;;;;;;18.00;99.90;;;17.31;94.51;96108.81;10499256;28;2205;-79
2021/08/23 08:39:21;;;;;;;;;;;18.10;99.90;;;17.45;94.06;96101.41;10489357;28;2107;-80
2021/08/23 08:44:24;;;;;;;;;;;18.10;99.90;;;17.24;90.72;96101.91;10479413;28;2298;-79
2021/08/23 08:49:27;;;;;;;;;;;18.10;99.90;;;17.91;86.52;96101.06;10482756;28;2415;-79
2021/08/23 08:54:30;;;;;;;;;;;18.30;99.90;;;18.34;86.44;96108.63;10504918;28;2069;-80
2021/08/23 08:59:34;;;;;;;;;;;18.60;99.90;;;18.57;80.94;96101.16;10497484;28;2229;-78
2021/08/23 09:04:39;;;;;;;;;;;;;;;19.20;77.56;96097.09;10502285;28;2335;-82
2021/08/23 09:09:44;;;;;;;;;;;19.30;99.90;;;19.76;73.16;96097.25;10514388;28;1942;-83
2021/08/23 09:14:47;;;;;;;;;;;20.00;99.90;;;19.95;73.98;96095.75;10491892;28;2374;-81
2021/08/23 09:19:50;;;;;;;;;;;20.20;99.90;;;19.82;71.72;96085.84;10505344;28;2443;-83
2021/08/23 09:24:53;;;;;;;;;;;20.20;99.90;;;19.12;77.55;96097.91;10487411;28;2721;-81
2021/08/23 09:29:59;;;;;;;;;;;19.70;99.90;;;18.94;75.28;96099.00;10500191;28;1980;-83
2021/08/23 09:35:01;;;;;;;;;;;19.50;99.90;;;19.12;74.56;96095.19;10502252;28;1926;-80
2021/08/23 09:40:05;;;;;;;;;;;19.60;99.90;;;19.25;72.54;96094.22;10521930;28;2268;-81
2021/08/23 09:45:08;;;;;;;;;;;19.70;99.90;;;19.88;72.43;96083.75;10489069;28;2329;-82
2021/08/23 09:50:11;;;;;;;;;;;20.20;99.90;;;19.27;69.40;96091.16;10481766;28;2667;-80
2021/08/23 09:55:14;;;;;;;;;;;20.10;99.90;;;19.22;70.67;96089.44;10502452;28;2621;-79
2021/08/23 10:00:16;;;;;;;;;;;19.80;99.90;;;18.82;76.36;96092.25;10484587;28;2333;-84
2021/08/23 10:05:21;;;;;;;;;;;19.60;99.90;;;18.65;75.21;96081.34;10509854;28;2778;-82
2021/08/23 10:10:25;;;;;;;;;;;19.20;99.90;;;18.69;76.80;96090.47;10479058;28;2577;-79
2021/08/23 10:15:28;;;;;;;;;;;19.20;99.90;;;18.14;77.24;96087.44;10498212;28;2353;-79
2021/08/23 10:20:30;;;;;;;;;;;19.10;99.90;;;18.16;76.84;96075.09;10478537;28;2277;-80
2021/08/23 10:25:34;;;;;;;;;;;18.80;99.90;;;19.00;72.87;96075.94;10478979;28;1972;-81
2021/08/23 10:30:38;;;;;;;;;;;19.30;99.90;;;19.27;69.31;96074.81;10486419;28;2282;-79
2021/08/23 10:35:40;;;;;;;;;;;19.70;99.90;;;19.68;68.96;96064.22;10487823;28;2315;-78
2021/08/23 10:40:43;;;;;;;;;;;19.80;99.90;;;19.15;70.00;96067.31;10497403;28;2229;-80
2021/08/23 10:45:47;;;;;;;;;;;19.80;99.90;;;18.41;72.33;96067.34;10501975;28;2726;-79
2021/08/23 10:50:50;;;;;;;;;;;19.40;99.90;;;18.98;70.81;96067.31;10500647;28;2140;-80
2021/08/23 10:55:53;;;;;;;;;;;19.40;99.90;;;19.67;67.62;96050.91;10501809;28;2121;-81
2021/08/23 11:00:55;;;;;;;;;;;19.90;99.90;;;19.66;66.84;96050.09;10501421;28;2633;-82
2021/08/23 11:05:58;;;;;;;;;;;20.20;99.90;;;19.60;65.60;96050.59;10507458;28;2051;-80
2021/08/23 11:11:04;;;;;;;;;;;20.30;99.90;;;19.44;67.50;96042.09;10494313;28;2312;-78
2021/08/23 11:16:07;;;;;;;;;;;20.10;99.90;;;19.38;67.31;96044.19;10507794;28;2636;-79
2021/08/23 11:21:10;;;;;;;;;;;20.30;99.90;;;19.65;65.60;96043.03;10505851;28;2633;-79
2021/08/23 11:26:13;;;;;;;;;;;20.20;99.90;;;20.09;66.92;96023.78;10508900;28;2397;-79
2021/08/23 11:31:16;;;;;;;;;;;20.40;99.90;;;20.51;62.65;96028.25;10513815;28;2376;-79
2021/08/23 11:36:19;;;;;;;;;;;20.80;99.90;;;20.30;61.30;96030.13;10499039;28;2005;-80
2021/08/23 11:41:22;;;;;;;;;;;20.90;99.90;;;20.81;59.43;96022.75;10506987;28;2440;-79
2021/08/23 11:46:24;;;;;;;;;;;21.10;99.90;;;21.89;56.57;96022.72;10482400;28;2670;-80
2021/08/23 11:51:27;;;;;;;;;;;21.90;99.90;;;21.03;58.38;96025.13;10503092;28;2733;-81
2021/08/23 11:56:30;;;;;;;;;;;21.80;99.90;;;20.26;60.46;96026.44;10517434;28;2753;-80
2021/08/23 12:01:33;;;;;;;;;;;21.10;99.90;;;20.69;59.47;96020.75;10519285;28;2275;-80
2021/08/23 12:06:36;;;;;;;;;;;21.20;99.90;;;21.36;57.38;96002.50;10480445;28;2320;-81
2021/08/23 12:11:39;;;;;;;;;;;21.70;99.90;;;21.13;57.02;96023.13;10501590;28;2345;-82
2021/08/23 12:16:44;;;;;;;;;;;21.70;99.90;;;20.67;58.59;96011.25;10496587;28;2359;-81
2021/08/23 12:21:47;;;;;;;;;;;21.30;99.90;;;20.81;57.62;96009.09;10499137;28;2278;-78
2021/08/23 12:26:54;;;;;;;;;;;21.40;99.90;;;20.99;57.08;95998.78;10483449;28;2677;-82
2021/08/23 12:31:57;;;;;;;;;;;21.40;99.90;;;21.03;54.82;96003.28;10508742;28;2418;-78
2021/08/23 12:37:00;;;;;;;;;;;21.60;99.90;;;20.69;56.70;95998.09;10516975;28;2289;-79
2021/08/23 12:42:03;;;;;;;;;;;21.20;99.90;;;20.61;57.10;95991.53;10488783;28;2340;-79
2021/08/23 12:47:06;;;;;;;;;;;21.10;99.90;;;20.30;57.96;96002.81;10489978;28;2288;-81
2021/08/23 12:52:08;;;;;;;;;;;21.10;99.90;;;19.99;60.60;96000.41;10510986;28;2654;-79
2021/08/23 12:57:11;;;;;;;;;;;20.80;99.90;;;19.94;60.54;95990.47;10507499;28;2308;-80
2021/08/23 13:02:14;;;;;;;;;;;20.50;99.90;;;20.01;62.17;95981.78;10494029;28;2677;-79
2021/08/23 13:07:16;;;;;;;;;;;20.50;99.90;;;20.33;58.10;95995.88;10504793;28;2339;-80
2021/08/23 13:12:19;;;;;;;;;;;20.90;99.90;;;19.82;57.65;96000.47;10496532;28;2406;-80
2021/08/23 13:17:22;;;;;;;;;;;20.70;99.90;;;20.33;56.16;95991.22;10499715;28;2284;-79
2021/08/23 13:22:25;;;;;;;;;;;20.80;99.90;;;20.75;53.73;95981.16;10505591;28;2250;-79
2021/08/23 13:27:27;;;;;;;;;;;21.10;99.90;;;21.13;53.13;95984.88;10486937;28;2280;-80
2021/08/23 13:32:30;;;;;;;;;;;21.50;99.90;;;21.24;51.96;95991.50;10498831;28;2221;-78
2021/08/23 13:37:33;;;;;;;;;;;21.70;99.90;;;21.25;52.65;95991.19;10495583;28;1974;-80
2021/08/23 13:42:36;;;;;;;;;;;21.70;99.90;;;21.51;52.91;95982.75;10495419;28;2260;-79
2021/08/23 13:47:39;;;;;;;;;;;21.90;99.90;;;21.69;53.27;95985.25;10500557;28;2227;-80
2021/08/23 13:52:42;;;;;;;;;;;22.10;99.90;;;21.85;53.21;95980.72;10501599;28;2339;-82
2021/08/23 13:57:44;;;;;;;;;;;22.30;99.90;;;21.94;54.57;95986.09;10484945;28;2351;-80
2021/08/23 14:02:48;;;;;;;;;;;22.40;99.90;;;21.63;55.36;95975.69;10472513;28;2376;-78
2021/08/23 14:07:53;;;;;;;;;;;22.30;99.90;;;21.09;56.89;95978.47;10482274;28;2757;-82
2021/08/23 14:12:57;;;;;;;;;;;21.90;99.90;;;21.03;57.48;95980.59;10492353;28;2390;-81
2021/08/23 14:18:00;;;;;;;;;;;21.60;99.90;;;21.44;57.10;95968.81;10499844;28;2424;-80
2021/08/23 14:23:03;;;;;;;;;;;21.90;99.90;;;21.77;51.57;95966.03;10516728;28;1749;-78
2021/08/23 14:28:05;;;;;;;;;;;22.30;99.90;;;21.35;51.67;95965.38;10530467;28;2243;-78
2021/08/23 14:33:08;;;;;;;;;;;22.00;99.90;;;21.63;52.04;95959.25;10492450;28;2321;-80
2021/08/23 14:38:11;;;;;;;;;;;22.00;99.90;;;21.27;52.82;95958.84;10496499;28;2265;-80
2021/08/23 14:43:14;;;;;;;;;;;22.00;99.90;;;21.20;53.88;95952.31;10480485;28;2394;-80
2021/08/23 14:48:17;;;;;;;;;;;21.90;99.90;;;20.99;54.45;95950.44;10494970;28;2280;-80
2021/08/23 14:53:19;;;;;;;;;;;21.80;99.90;;;20.56;56.25;95955.47;10498436;28;2220;-80
2021/08/23 14:58:22;;;;;;;;;;;21.50;99.90;;;20.27;57.51;95967.97;10493324;28;2373;-81
2021/08/23 15:03:25;;;;;;;;;;;21.10;99.90;;;20.14;59.14;95966.28;10467695;28;2364;-79
2021/08/23 15:08:28;;;;;;;;;;;20.90;99.90;;;20.17;58.57;95960.19;10494764;28;2374;-79
2021/08/23 15:13:31;;;;;;;;;;;20.90;99.90;;;20.23;58.73;95959.66;10497176;28;2336;-79
2021/08/23 15:18:35;;;;;;;;;;;20.80;99.90;;;20.23;58.82;95956.94;10493382;28;2253;-79
2021/08/23 15:23:38;;;;;;;;;;;20.80;99.90;;;20.11;55.71;95962.31;10500722;28;2752;-79
2021/08/23 15:28:42;;;;;;;;;;;20.80;99.90;;;20.04;54.62;95950.28;10507458;28;2396;-78
2021/08/23 15:33:44;;;;;;;;;;;20.80;99.90;;;19.81;55.73;95966.16;10527745;28;2327;-78
2021/08/23 15:38:49;;;;;;;;;;;20.70;99.90;;;19.65;57.07;95958.50;10513065;28;2684;-79
2021/08/23 15:43:52;;;;;;;;;;;20.40;99.90;;;19.67;57.92;95958.19;10514783;28;2206;-78
2021/08/23 15:48:55;;;;;;;;;;;20.40;99.90;;;19.57;58.84;95958.50;10500421;28;2333;-79
2021/08/23 15:53:58;;;;;;;;;;;20.30;99.90;;;19.44;59.92;95966.56;10525824;28;2416;-78
2021/08/23 15:59:00;;;;;;;;;;;20.30;99.90;;;19.58;59.94;95960.13;10510530;28;2460;-78
2021/08/23 16:04:03;;;;;;;;;;;20.30;99.90;;;19.47;59.95;95954.22;10501687;28;2255;-78
2021/08/23 16:09:06;;;;;;;;;;;20.20;99.90;;;19.15;60.79;95950.94;10499162;28;2668;-78
2021/08/23 16:14:08;;;;;;;;;;;20.10;99.90;;;19.14;61.35;95949.31;10484252;28;2385;-78
2021/08/23 16:19:11;;;;;;;;;;;20.00;99.90;;;19.02;61.13;95945.66;10502914;28;2311;-77
2021/08/23 16:24:14;;;;;;;;;;;20.10;99.90;;;18.98;62.13;95961.06;10502814;28;2367;-77
2021/08/23 16:29:23;;;;;;;;;;;19.90;99.90;;;18.86;63.72;95961.72;10496889;28;2294;-78
2021/08/23 16:34:26;;;;;;;;;;;19.90;99.90;;;18.63;65.74;95974.66;10477412;28;2232;-79
2021/08/23 16:39:28;;;;;;;;;;;19.70;99.90;;;18.09;72.49;95971.38;10502042;28;2244;-78
2021/08/23 16:44:31;;;;;;;;;;;19.40;99.90;;;17.76;73.20;95979.94;10493961;28;2266;-77
2021/08/23 16:49:34;;;;;;;;;;;19.00;99.90;;;17.48;78.65;95981.19;10506863;28;2362;-78
2021/08/23 16:54:37;;;;;;;;;;;18.70;99.90;;;16.87;84.68;95999.03;10483473;28;2395;-78
2021/08/23 16:59:39;;;;;;;;;;;18.30;99.90;;;16.45;90.29;96006.47;10483709;28;2343;-78
2021/08/23 17:04:42;;;;;;;;;;;17.80;99.90;;;15.93;96.61;96019.50;10498462;28;2253;-78
2021/08/23 17:09:45;;;;;;;;;;;17.30;99.90;;;14.99;100.00;96034.13;10501958;28;2252;-80
2021/08/23 17:14:48;;;;;;;;;;;16.60;99.90;;;14.81;100.00;96035.75;10498911;28;2332;-80
2021/08/23 17:19:50;;;;;;;;;;;15.90;99.90;;;14.79;100.00;96032.53;10496684;28;2302;-80
2021/08/23 17:24:53;;;;;;;;;;;15.80;99.90;;;14.77;100.00;96032.03;10502261;28;2327;-80
2021/08/23 17:29:56;;;;;;;;;;;15.70;99.90;;;14.82;100.00;96033.84;10499918;28;2304;-81
2021/08/23 17:34:58;;;;;;;;;;;15.70;99.90;;;14.81;100.00;96041.16;10498973;28;2312;-81
2021/08/23 17:40:01;;;;;;;;;;;15.80;99.90;;;14.78;100.00;96038.25;10479567;28;2408;-80
2021/08/23 17:45:04;;;;;;;;;;;15.70;99.90;;;14.81;100.00;96038.44;10499887;28;2327;-79
2021/08/23 17:50:06;;;;;;;;;;;15.80;99.90;;;14.88;100.00;96035.38;10499266;28;2347;-80
2021/08/23 17:55:09;;;;;;;;;;;15.80;99.90;;;14.88;100.00;96051.63;10498888;28;2264;-80
2021/08/23 18:00:12;;;;;;;;;;;15.80;99.90;;;14.84;100.00;96047.91;10482168;28;2339;-81
2021/08/23 18:05:16;;;;;;;;;;;15.80;99.90;;;14.81;100.00;96045.78;10498338;28;2316;-79
2021/08/23 18:10:18;;;;;;;;;;;15.80;99.90;;;14.79;100.00;96050.69;10489858;28;2296;-80
2021/08/23 18:15:21;;;;;;;;;;;15.80;99.90;;;14.77;100.00;96050.97;10492223;28;2268;-79
2021/08/23 18:20:24;;;;;;;;;;;15.70;99.90;;;14.68;100.00;96057.31;10494670;28;2394;-80
2021/08/23 18:25:27;;;;;;;;;;;15.70;99.90;;;14.68;100.00;96051.91;10511991;28;1871;-81
2021/08/23 18:30:30;;;;;;;;;;;15.60;99.90;;;14.66;100.00;96054.13;10507250;28;2288;-79
2021/08/23 18:35:32;;;;;;;;;;;15.60;99.90;;;14.66;100.00;96060.34;10502134;28;2288;-80
2021/08/23 18:40:35;;;;;;;;;;;15.60;99.90;;;14.62;100.00;96061.19;10508796;28;2249;-79
2021/08/23 18:45:38;;;;;;;;;;;15.60;99.90;;;14.68;100.00;96062.75;10506392;28;2355;-80
2021/08/23 18:50:41;;;;;;;;;;;15.60;99.90;;;14.70;100.00;96066.78;10502232;28;2271;-79
2021/08/23 18:55:43;;;;;;;;;;;15.70;99.90;;;14.68;100.00;96073.56;10522638;28;2329;-82
2021/08/23 19:00:46;;;;;;;;;;;15.60;99.90;;;14.59;100.00;96076.94;10510015;28;2329;-79
2021/08/23 19:05:49;;;;;;;;;;;15.60;99.90;;;14.58;100.00;96080.75;10503319;28;2274;-82
2021/08/23 19:10:52;;;;;;;;;;;15.50;99.90;;;14.53;100.00;96085.41;10511997;28;2304;-78
2021/08/23 19:15:56;;;;;;;;;;;15.50;99.90;;;14.29;100.00;96104.34;10523243;28;2354;-82
2021/08/23 19:21:02;;;;;;;;;;;15.30;99.90;;;13.94;100.00;96114.47;10513721;28;2458;-78
2021/08/23 19:26:04;;;;;;;;;;;15.10;99.90;;;13.86;100.00;96122.38;10501409;28;2280;-79
2021/08/23 19:31:07;;;;;;;;;;;14.90;99.90;;;13.74;100.00;96129.00;10500611;28;2295;-78
2021/08/23 19:36:10;;;;;;;;;;;14.80;99.90;;;13.78;100.00;96129.22;10499387;28;2228;-79
2021/08/23 19:41:13;;;;;;;;;;;14.70;99.90;;;13.70;100.00;96124.44;10497855;28;2291;-78
2021/08/23 19:46:15;;;;;;;;;;;14.70;99.90;;;13.70;100.00;96135.25;10486857;28;2280;-79
2021/08/23 19:51:19;;;;;;;;;;;14.70;99.90;;;13.79;100.00;96137.03;10506805;28;2334;-78
2021/08/23 19:56:21;;;;;;;;;;;14.70;99.90;;;13.84;100.00;96138.88;10507062;28;2668;-80
2021/08/23 20:01:24;;;;;;;;;;;14.80;99.90;;;13.87;100.00;96141.03;10503703;28;2241;-80
2021/08/23 20:06:27;;;;;;;;;;;14.80;99.90;;;13.92;100.00;96143.66;10482976;28;2559;-79
2021/08/23 20:11:30;;;;;;;;;;;14.90;99.90;;;13.95;100.00;96136.88;10499210;28;2276;-81
2021/08/23 20:16:33;;;;;;;;;;;14.90;99.90;;;14.07;100.00;96140.00;10502165;28;2329;-81
2021/08/23 20:21:35;;;;;;;;;;;14.90;99.90;;;14.10;100.00;96144.03;10503120;28;2259;-79
2021/08/23 20:26:38;;;;;;;;;;;15.00;99.90;;;14.21;100.00;96145.53;10516631;28;1540;-87
2021/08/23 20:31:41;;;;;;;;;;;15.10;99.90;;;14.17;100.00;96144.47;10515159;28;2306;-80
2021/08/23 20:37:14;;;;;;;;;;;15.10;99.90;;;14.27;100.00;96139.78;10514126;28;2543;-79
2021/08/23 20:42:16;;;;;;;;;;;15.20;99.90;;;14.33;100.00;96137.81;10501906;28;2368;-80
2021/08/23 20:47:19;;;;;;;;;;;15.20;99.90;;;14.38;100.00;96139.66;10498795;28;2351;-78
2021/08/23 20:52:22;;;;;;;;;;;15.30;99.90;;;14.43;100.00;96136.88;10492416;28;2311;-77
2021/08/23 20:57:24;;;;;;;;;;;15.30;99.90;;;14.39;100.00;96142.09;10536542;28;2186;-78
2021/08/23 21:02:27;;;;;;;;;;;15.40;99.90;;;14.38;100.00;96139.66;10519060;28;2257;-78
2021/08/23 21:07:30;;;;;;;;;;;15.30;99.90;;;14.20;100.00;96127.72;10477188;28;2266;-78
2021/08/23 21:12:33;;;;;;;;;;;15.30;99.90;;;14.05;100.00;96147.56;10486528;28;2365;-79
2021/08/23 21:17:36;;;;;;;;;;;15.10;99.90;;;13.92;100.00;96140.16;10492628;28;2365;-79
2021/08/23 21:22:38;;;;;;;;;;;15.00;99.90;;;13.70;100.00;96151.44;10489466;28;2107;-78
2021/08/23 21:27:41;;;;;;;;;;;14.80;99.90;;;13.57;100.00;96160.22;10492254;28;2360;-78
2021/08/23 21:32:44;;;;;;;;;;;14.60;99.90;;;13.49;100.00;96161.63;10492345;28;2272;-77
2021/08/23 21:37:47;;;;;;;;;;;14.50;99.90;;;13.47;100.00;96155.69;10493280;28;2290;-77
2021/08/23 21:42:50;;;;;;;;;;;14.50;99.90;;;13.51;100.00;96164.84;10509202;28;2453;-78
2021/08/23 21:47:52;;;;;;;;;;;14.40;99.90;;;13.45;100.00;96166.78;10477241;28;2397;-78
2021/08/23 21:52:56;;;;;;;;;;;14.40;99.90;;;13.41;100.00;96157.59;10491924;28;2341;-79
2021/08/23 21:57:58;;;;;;;;;;;14.40;99.90;;;13.30;100.00;96163.38;10473119;28;2118;-78
2021/08/23 22:03:01;;;;;;;;;;;14.30;99.90;;;13.25;100.00;96166.94;10466323;28;2080;-79
2021/08/23 22:08:04;;;;;;;;;;;14.20;99.90;;;13.19;100.00;96165.31;10505784;28;2040;-77
2021/08/23 22:13:07;;;;;;;;;;;14.20;99.90;;;13.12;100.00;96164.81;10505255;28;2395;-78
2021/08/23 22:18:10;;;;;;;;;;;14.10;99.90;;;13.09;100.00;96165.38;10492423;28;2716;-77
2021/08/23 22:23:12;;;;;;;;;;;14.10;99.90;;;13.12;100.00;96165.63;10499237;28;2093;-78
2021/08/23 22:28:15;;;;;;;;;;;14.10;99.90;;;13.12;100.00;96167.53;10491702;28;2068;-78
2021/08/23 22:33:18;;;;;;;;;;;14.10;99.90;;;13.07;100.00;96171.06;10491555;28;2722;-79
2021/08/23 22:38:21;;;;;;;;;;;14.10;99.90;;;13.21;100.00;96172.06;10505747;28;2715;-77
2021/08/23 22:43:24;;;;;;;;;;;14.10;99.90;;;13.19;100.00;96178.81;10507137;28;2234;-78
2021/08/23 22:48:27;;;;;;;;;;;14.20;99.90;;;13.18;100.00;96182.59;10514583;28;2085;-79
2021/08/23 22:53:29;;;;;;;;;;;14.10;99.90;;;13.10;100.00;96175.88;10496444;28;2077;-79
2021/08/23 22:58:32;;;;;;;;;;;14.10;99.90;;;13.02;100.00;96181.06;10496989;28;2135;-79
2021/08/23 23:03:35;;;;;;;;;;;14.10;99.90;;;13.16;100.00;96184.75;10473906;28;2129;-79
2021/08/23 23:08:37;;;;;;;;;;;14.10;99.90;;;12.99;100.00;96191.34;10493757;28;2006;-78